Brest, Belarus
Current Conditions -  °F | °C
As of 1:30 PM on Monday 20 Oct 2014 (Local Time) from UMBB Reporting Station
Broken Clouds Broken Clouds  
Wind Chill: 61°   Ceiling: 3000
Heat Index: 61°   Visibility: 6mi
Dew Point: 52°   Wind: 16mph
Humidity: 72%   Direction: 290°WNW
Pressure: 29.74"   Gusts: 25mph
Location:  52.12°N, 23.68°E
Report Text: UMBB 201130Z 29007G11MPS 9999 BKN030CB 16/11 Q1007 R29/CLRD//NOSIG
Loading
Personal Weather Stations






























Interactive Weather Map
Tropical Storm Tracking
New forecast layout! Learn more

10-Day Weather Forecast

Advertisements
Track Severe Weather on mobile